createdAt,value
2019-01-30T00:00:37.775Z,99936.27
2019-01-30T00:01:43.168Z,99937.14
2019-01-30T00:02:48.626Z,99940.17
2019-01-30T00:03:54.835Z,99941.95
2019-01-30T00:05:00.310Z,99945.02
2019-01-30T00:06:06.158Z,99947.68
2019-01-30T00:07:12.208Z,99941.58
2019-01-30T00:08:17.646Z,99940.36
2019-01-30T00:09:23.087Z,99940.37
2019-01-30T00:10:29.037Z,99947.37
2019-01-30T00:11:35.126Z,99950.03
2019-01-30T00:12:42.018Z,99943.50
2019-01-30T00:13:48.615Z,99946.11
2019-01-30T00:14:54.648Z,99955.67
2019-01-30T00:16:02.058Z,99949.98
2019-01-30T00:17:08.711Z,99947.78
2019-01-30T00:18:14.117Z,99954.83
2019-01-30T00:19:21.194Z,99950.48
2019-01-30T00:20:27.249Z,99954.46
2019-01-30T00:21:33.081Z,99952.73
2019-01-30T00:22:39.087Z,99951.42
2019-01-30T00:23:45.417Z,99954.88
2019-01-30T00:24:51.006Z,99950.02
2019-01-30T00:25:57.886Z,99957.44
2019-01-30T00:27:04.286Z,99958.38
2019-01-30T00:28:10.628Z,99954.92
2019-01-30T00:29:15.978Z,99956.28
2019-01-30T00:30:26.683Z,99957.18
2019-01-30T00:31:32.110Z,99956.34
2019-01-30T00:32:37.550Z,99956.34
2019-01-30T00:33:42.847Z,99951.02
2019-01-30T00:34:48.146Z,99951.44
2019-01-30T00:35:53.410Z,99950.55
2019-01-30T00:36:58.777Z,99947.94
2019-01-30T00:38:06.208Z,99952.74
2019-01-30T00:39:13.185Z,99947.09
2019-01-30T00:40:23.213Z,99948.77
2019-01-30T00:41:29.088Z,99950.48
2019-01-30T00:42:35.028Z,99950.03
2019-01-30T00:43:41.289Z,99947.42
2019-01-30T00:44:47.183Z,99953.10
2019-01-30T00:45:53.639Z,99950.41
2019-01-30T00:47:00.314Z,99946.06
2019-01-30T00:48:06.870Z,99947.37
2019-01-30T00:49:12.207Z,99948.20
2019-01-30T00:50:26.200Z,99936.44
2019-01-30T00:51:33.383Z,99941.20
2019-01-30T00:52:39.634Z,99942.05
2019-01-30T00:53:45.968Z,99942.45
2019-01-30T00:54:51.516Z,99942.84
2019-01-30T00:55:57.356Z,99945.45
2019-01-30T00:57:04.306Z,99944.14
2019-01-30T00:58:10.107Z,99945.45
2019-01-30T00:59:15.505Z,99944.98
2019-01-30T01:00:25.750Z,99944.09
2019-01-30T01:01:31.115Z,99946.70
2019-01-30T01:02:36.625Z,99948.80
2019-01-30T01:03:42.054Z,99947.96
2019-01-30T01:04:47.377Z,99943.62
2019-01-30T01:05:52.720Z,99952.34
2019-01-30T01:06:58.056Z,99941.84
2019-01-30T01:08:04.331Z,99943.10
2019-01-30T01:09:11.047Z,99943.52
2019-01-30T01:10:19.058Z,99940.53
2019-01-30T01:11:25.378Z,99945.77
2019-01-30T01:12:31.127Z,99943.20
2019-01-30T01:13:36.697Z,99944.97
2019-01-30T01:14:43.086Z,99942.79
2019-01-30T01:15:50.208Z,99943.58
2019-01-30T01:16:56.167Z,99941.84
2019-01-30T01:18:03.139Z,99940.13
2019-01-30T01:19:10.326Z,99942.73
2019-01-30T01:20:20.038Z,99943.14
2019-01-30T01:21:26.116Z,99941.42
2019-01-30T01:22:32.360Z,99944.83
2019-01-30T01:23:38.296Z,99943.95
2019-01-30T01:24:44.317Z,99948.75
2019-01-30T01:25:51.413Z,99946.13
2019-01-30T01:26:57.159Z,99945.23
2019-01-30T01:28:04.416Z,99937.83
2019-01-30T01:29:10.031Z,99938.30
2019-01-30T01:30:25.197Z,99934.38
2019-01-30T01:31:29.580Z,99932.59
2019-01-30T01:32:34.888Z,99935.21
2019-01-30T01:33:40.198Z,99930.05
2019-01-30T01:34:45.631Z,99927.39
2019-01-30T01:35:50.969Z,99928.73
2019-01-30T01:36:56.498Z,99927.43
2019-01-30T01:38:03.539Z,99923.09
2019-01-30T01:39:10.338Z,99917.92
2019-01-30T01:40:18.237Z,99913.58
2019-01-30T01:41:25.585Z,99914.05
2019-01-30T01:42:32.370Z,99916.16
2019-01-30T01:43:37.671Z,99924.50
2019-01-30T01:44:43.771Z,99911.44
2019-01-30T01:45:51.051Z,99907.89
2019-01-30T01:46:56.983Z,99915.31
2019-01-30T01:48:03.346Z,99917.45
2019-01-30T01:49:09.010Z,99915.30
2019-01-30T01:50:18.149Z,99906.95
2019-01-30T01:51:24.530Z,99906.48
2019-01-30T01:52:30.709Z,99903.77
2019-01-30T01:53:36.841Z,99903.25
2019-01-30T01:54:42.955Z,99909.27
2019-01-30T01:55:49.347Z,99912.56
2019-01-30T01:56:54.999Z,99908.64
2019-01-30T01:58:00.646Z,99905.10
2019-01-30T01:59:06.847Z,99914.66
2019-01-30T02:00:23.608Z,99905.93
2019-01-30T02:01:28.868Z,99913.25
2019-01-30T02:02:34.247Z,99915.34
2019-01-30T02:03:39.666Z,99911.31
2019-01-30T02:04:45.000Z,99910.73
2019-01-30T02:05:50.328Z,99913.29
2019-01-30T02:06:55.774Z,99909.33
2019-01-30T02:08:01.132Z,99911.00
2019-01-30T02:09:08.708Z,99908.38
2019-01-30T02:10:19.492Z,99911.36
2019-01-30T02:11:25.768Z,99910.84
2019-01-30T02:12:32.499Z,99905.98
2019-01-30T02:13:38.227Z,99901.18
2019-01-30T02:14:44.718Z,99900.28
2019-01-30T02:15:50.890Z,99904.56
2019-01-30T02:16:56.648Z,99904.08
2019-01-30T02:18:03.395Z,99901.37
2019-01-30T02:19:10.409Z,99897.03
2019-01-30T02:20:20.443Z,99896.09
2019-01-30T02:21:26.748Z,99896.04
2019-01-30T02:22:33.627Z,99898.55
2019-01-30T02:23:39.659Z,99884.45
2019-01-30T02:24:46.889Z,99900.31
2019-01-30T02:25:52.578Z,99903.28
2019-01-30T02:26:59.569Z,99903.23
2019-01-30T02:28:07.371Z,99901.03
2019-01-30T02:29:12.927Z,99900.14
2019-01-30T02:30:21.360Z,99901.50
2019-01-30T02:31:26.749Z,99905.41
2019-01-30T02:32:31.904Z,99906.27
2019-01-30T02:33:37.286Z,99901.92
2019-01-30T02:34:43.741Z,99901.50
2019-01-30T02:35:48.895Z,99902.34
2019-01-30T02:36:57.497Z,99900.98
2019-01-30T02:38:03.981Z,99903.13
2019-01-30T02:39:09.388Z,99915.31
2019-01-30T02:40:18.223Z,99909.63
2019-01-30T02:41:24.901Z,99903.58
2019-01-30T02:42:31.225Z,99917.05
2019-01-30T02:43:36.760Z,99907.92
2019-01-30T02:44:43.088Z,99913.55
2019-01-30T02:45:48.981Z,99909.63
2019-01-30T02:46:56.298Z,99918.29
2019-01-30T02:48:02.979Z,99906.25
2019-01-30T02:49:08.541Z,99912.34
2019-01-30T02:50:18.332Z,99909.32
2019-01-30T02:51:25.248Z,99906.25
2019-01-30T02:52:30.987Z,99899.74
2019-01-30T02:53:37.449Z,99903.70
2019-01-30T02:54:44.408Z,99907.25
2019-01-30T02:55:50.892Z,99911.59
2019-01-30T02:56:57.220Z,99907.66
2019-01-30T02:58:03.727Z,99914.20
2019-01-30T02:59:10.167Z,99912.06
2019-01-30T03:00:22.089Z,99905.12
2019-01-30T03:01:27.470Z,99906.00
2019-01-30T03:02:32.841Z,99906.38
2019-01-30T03:03:38.218Z,99903.33
2019-01-30T03:04:43.556Z,99909.87
2019-01-30T03:05:48.808Z,99915.91
2019-01-30T03:06:54.321Z,99905.01
2019-01-30T03:07:59.705Z,99909.03
2019-01-30T03:09:07.589Z,99911.59
2019-01-30T03:10:19.911Z,99909.44
2019-01-30T03:11:26.065Z,99910.27
2019-01-30T03:12:31.477Z,99907.66
2019-01-30T03:13:37.956Z,99905.52
2019-01-30T03:14:46.488Z,99904.64
2019-01-30T03:15:51.928Z,99901.63
2019-01-30T03:16:58.967Z,99908.14
2019-01-30T03:18:05.260Z,99900.72
2019-01-30T03:19:11.308Z,99898.12
2019-01-30T03:20:22.874Z,99900.67
2019-01-30T03:21:30.419Z,99901.52
2019-01-30T03:22:36.610Z,99902.40
2019-01-30T03:23:43.128Z,99899.26
2019-01-30T03:24:49.971Z,99904.95
2019-01-30T03:25:55.454Z,99898.84
2019-01-30T03:27:01.217Z,99896.23
2019-01-30T03:28:06.952Z,99901.94
2019-01-30T03:29:13.355Z,99896.72
2019-01-30T03:30:28.470Z,99900.56
2019-01-30T03:31:33.782Z,99898.80
2019-01-30T03:32:39.119Z,99895.77
2019-01-30T03:33:45.576Z,99898.38
2019-01-30T03:34:50.917Z,99903.13
2019-01-30T03:35:56.161Z,99895.30
2019-01-30T03:37:01.316Z,99900.45
2019-01-30T03:38:06.700Z,99901.70
2019-01-30T03:39:12.037Z,99906.48
2019-01-30T03:40:21.089Z,99899.09
2019-01-30T03:41:27.088Z,99900.34
2019-01-30T03:42:34.176Z,99893.87
2019-01-30T03:43:40.996Z,99894.28
2019-01-30T03:44:46.979Z,99903.00
2019-01-30T03:45:53.823Z,99903.34
2019-01-30T03:46:59.128Z,99896.83
2019-01-30T03:48:05.848Z,99898.13
2019-01-30T03:49:13.450Z,99902.83
2019-01-30T03:50:19.302Z,99899.39
2019-01-30T03:51:25.730Z,99899.44
2019-01-30T03:52:32.486Z,99902.94
2019-01-30T03:53:38.207Z,99904.23
2019-01-30T03:54:43.888Z,99898.13
2019-01-30T03:55:50.488Z,99903.34
2019-01-30T03:56:56.251Z,99901.16
2019-01-30T03:58:02.429Z,99900.69
2019-01-30T03:59:08.855Z,99891.52
2019-01-30T04:00:26.167Z,99898.91
2019-01-30T04:01:31.540Z,99899.27
2019-01-30T04:02:36.760Z,99895.72
2019-01-30T04:03:43.100Z,99898.69
2019-01-30T04:04:48.548Z,99900.86
2019-01-30T04:05:53.878Z,99903.42
2019-01-30T04:06:59.312Z,99903.37
2019-01-30T04:08:04.587Z,99898.62
2019-01-30T04:09:11.178Z,99899.45
2019-01-30T04:10:20.333Z,99900.33
2019-01-30T04:11:27.406Z,99903.67
2019-01-30T04:12:33.767Z,99900.16
2019-01-30T04:13:39.779Z,99908.81
2019-01-30T04:14:45.917Z,99911.41
2019-01-30T04:15:53.736Z,99907.49
2019-01-30T04:16:59.595Z,99911.82
2019-01-30T04:18:05.330Z,99911.82
2019-01-30T04:19:11.608Z,99911.82
2019-01-30T04:20:19.790Z,99916.52
2019-01-30T04:21:27.813Z,99913.91
2019-01-30T04:22:35.010Z,99919.59
2019-01-30T04:23:41.412Z,99919.12
2019-01-30T04:24:47.727Z,99918.70
2019-01-30T04:25:54.737Z,99921.36
2019-01-30T04:27:00.779Z,99921.36
2019-01-30T04:28:06.725Z,99917.92
2019-01-30T04:29:13.459Z,99920.55
2019-01-30T04:30:25.021Z,99917.10
2019-01-30T04:31:38.008Z,99920.13
2019-01-30T04:32:37.477Z,99921.48
2019-01-30T04:33:42.900Z,99923.69
2019-01-30T04:34:48.437Z,99912.38
2019-01-30T04:35:53.727Z,99914.96
2019-01-30T04:36:58.990Z,99917.98
2019-01-30T04:38:04.231Z,99920.59
2019-01-30T04:39:10.169Z,99920.61
2019-01-30T04:40:19.287Z,99922.80
2019-01-30T04:41:26.078Z,99920.66
2019-01-30T04:42:33.651Z,99920.18
2019-01-30T04:43:39.988Z,99914.56
2019-01-30T04:44:47.216Z,99914.20
2019-01-30T04:45:53.169Z,99916.75
2019-01-30T04:46:59.368Z,99912.84
2019-01-30T04:48:05.579Z,99915.86
2019-01-30T04:49:12.491Z,99918.47
2019-01-30T04:50:18.611Z,99916.27
2019-01-30T04:51:25.538Z,99914.03
2019-01-30T04:52:31.348Z,99927.18
2019-01-30T04:53:38.049Z,99920.73
2019-01-30T04:54:44.020Z,99915.98
2019-01-30T04:55:50.218Z,99913.38
2019-01-30T04:56:56.158Z,99920.42
2019-01-30T04:58:02.408Z,99916.50
2019-01-30T04:59:09.656Z,99911.72
2019-01-30T05:00:25.857Z,99917.34
2019-01-30T05:01:31.166Z,99911.66
2019-01-30T05:02:36.640Z,99911.19
2019-01-30T05:03:42.178Z,99917.29
2019-01-30T05:04:47.592Z,99916.92
2019-01-30T05:05:53.065Z,99914.33
2019-01-30T05:06:58.481Z,99909.17
2019-01-30T05:08:03.795Z,99916.57
2019-01-30T05:09:09.759Z,99909.64
2019-01-30T05:10:15.730Z,99913.50
2019-01-30T05:11:22.577Z,99907.86
2019-01-30T05:12:30.175Z,99907.86
2019-01-30T05:13:35.906Z,99912.19
2019-01-30T05:14:42.256Z,99910.82
2019-01-30T05:15:49.310Z,99913.03
2019-01-30T05:16:55.368Z,99903.95
2019-01-30T05:18:01.822Z,99912.25
2019-01-30T05:19:09.127Z,99909.66
2019-01-30T05:20:18.498Z,99915.31
2019-01-30T05:21:25.370Z,99913.12
2019-01-30T05:22:32.095Z,99912.66
2019-01-30T05:23:37.478Z,99906.98
2019-01-30T05:24:44.006Z,99911.30
2019-01-30T05:25:50.496Z,99914.33
2019-01-30T05:26:55.930Z,99908.22
2019-01-30T05:28:02.363Z,99907.75
2019-01-30T05:29:08.636Z,99913.38
2019-01-30T05:30:31.730Z,99909.47
2019-01-30T05:31:37.191Z,99916.80
2019-01-30T05:32:42.490Z,99912.89
2019-01-30T05:33:47.998Z,99909.81
2019-01-30T05:34:53.337Z,99913.36
2019-01-30T05:35:58.772Z,99910.30
2019-01-30T05:37:04.212Z,99908.15
2019-01-30T05:38:09.648Z,99913.36
2019-01-30T05:39:14.897Z,99909.87
2019-01-30T05:40:22.525Z,99910.58
2019-01-30T05:41:28.169Z,99912.70
2019-01-30T05:42:33.829Z,99911.42
2019-01-30T05:43:42.528Z,99909.33
2019-01-30T05:44:48.588Z,99904.13
2019-01-30T05:45:53.980Z,99905.02
2019-01-30T05:47:00.731Z,99903.77
2019-01-30T05:48:08.267Z,99902.88
2019-01-30T05:49:13.908Z,99902.00
2019-01-30T05:50:20.290Z,99908.15
2019-01-30T05:51:26.332Z,99909.87
2019-01-30T05:52:31.850Z,99909.81
2019-01-30T05:53:38.049Z,99913.27
2019-01-30T05:54:44.770Z,99909.75
2019-01-30T05:55:50.097Z,99918.83
2019-01-30T05:56:57.087Z,99913.12
2019-01-30T05:58:03.138Z,99908.34
2019-01-30T05:59:08.654Z,99914.84
2019-01-30T06:00:26.929Z,99912.66
2019-01-30T06:01:32.248Z,99917.87
2019-01-30T06:02:37.487Z,99918.70
2019-01-30T06:03:43.087Z,99919.05
2019-01-30T06:04:48.516Z,99916.86
2019-01-30T06:05:53.738Z,99918.22
2019-01-30T06:06:59.169Z,99926.92
2019-01-30T06:08:04.458Z,99918.23
2019-01-30T06:09:09.805Z,99921.70
2019-01-30T06:10:16.239Z,99925.22
2019-01-30T06:11:23.049Z,99920.35
2019-01-30T06:12:29.616Z,99923.80
2019-01-30T06:13:35.265Z,99927.75
2019-01-30T06:14:41.538Z,99921.26
2019-01-30T06:15:47.867Z,99924.38
2019-01-30T06:16:53.494Z,99923.86
2019-01-30T06:17:59.247Z,99927.36
2019-01-30T06:19:06.062Z,99933.51
2019-01-30T06:20:16.231Z,99934.41
2019-01-30T06:21:22.544Z,99931.80
2019-01-30T06:22:29.093Z,99936.66
2019-01-30T06:23:34.498Z,99935.77
2019-01-30T06:24:40.272Z,99937.91
2019-01-30T06:25:48.085Z,99929.72
2019-01-30T06:26:54.257Z,99934.41
2019-01-30T06:28:00.407Z,99928.24
2019-01-30T06:29:06.587Z,99943.05
2019-01-30T06:30:16.896Z,99934.88
2019-01-30T06:31:22.307Z,99937.12
2019-01-30T06:32:27.806Z,99941.94
2019-01-30T06:33:33.290Z,99942.77
2019-01-30T06:34:38.680Z,99943.22
2019-01-30T06:35:44.129Z,99951.95
2019-01-30T06:36:49.640Z,99940.63
2019-01-30T06:37:54.998Z,99942.45
2019-01-30T06:39:00.398Z,99943.29
2019-01-30T06:40:10.850Z,99945.77
2019-01-30T06:41:17.658Z,99942.69
2019-01-30T06:42:23.749Z,99946.66
2019-01-30T06:43:30.234Z,99943.66
2019-01-30T06:44:36.684Z,99945.89
2019-01-30T06:45:43.252Z,99950.30
2019-01-30T06:46:49.476Z,99943.88
2019-01-30T06:47:55.249Z,99944.73
2019-01-30T06:49:00.988Z,99940.82
2019-01-30T06:50:12.247Z,99936.49
2019-01-30T06:51:18.007Z,99940.87
2019-01-30T06:52:24.449Z,99942.52
2019-01-30T06:53:31.048Z,99938.20
2019-01-30T06:54:37.169Z,99939.86
2019-01-30T06:55:45.028Z,99940.27
2019-01-30T06:56:52.175Z,99935.47
2019-01-30T06:57:57.968Z,99935.47
2019-01-30T06:59:05.876Z,99941.57
2019-01-30T07:00:19.734Z,99940.27
2019-01-30T07:01:25.629Z,99936.30
2019-01-30T07:02:32.398Z,99935.05
2019-01-30T07:03:38.021Z,99937.27
2019-01-30T07:04:43.377Z,99938.61
2019-01-30T07:05:48.619Z,99937.36
2019-01-30T07:06:53.989Z,99939.52
2019-01-30T07:07:59.359Z,99937.36
2019-01-30T07:09:08.070Z,99941.29
2019-01-30T07:10:23.025Z,99936.06
2019-01-30T07:11:28.380Z,99933.94
2019-01-30T07:12:35.046Z,99938.31
2019-01-30T07:13:41.496Z,99941.81
2019-01-30T07:14:47.639Z,99944.00
2019-01-30T07:15:54.180Z,99939.16
2019-01-30T07:17:01.037Z,99939.56
2019-01-30T07:19:56.536Z,99942.23
2019-01-30T07:24:18.202Z,99937.56
2019-01-30T07:25:24.737Z,99939.75
2019-01-30T07:26:31.537Z,99941.48
2019-01-30T07:27:36.967Z,99944.19
2019-01-30T07:28:43.409Z,99948.09
2019-01-30T07:29:49.786Z,99944.25
2019-01-30T07:30:55.599Z,99949.53
2019-01-30T07:32:01.602Z,99952.24
2019-01-30T07:33:06.839Z,99955.28
2019-01-30T07:34:12.320Z,99948.77
2019-01-30T07:35:18.694Z,99943.95
2019-01-30T07:36:24.118Z,99950.94
2019-01-30T07:37:29.547Z,99949.10
2019-01-30T07:38:34.804Z,99948.22
2019-01-30T07:39:40.027Z,99951.19
2019-01-30T07:40:45.499Z,99948.52
2019-01-30T07:41:52.239Z,99945.39
2019-01-30T07:42:58.218Z,99955.81
2019-01-30T07:44:04.198Z,99949.23
2019-01-30T07:45:15.184Z,99945.67
2019-01-30T07:46:21.451Z,99942.99
2019-01-30T07:47:27.491Z,99946.37
2019-01-30T07:48:33.647Z,99945.89
2019-01-30T07:49:40.516Z,99953.20
2019-01-30T07:50:46.315Z,99954.95
2019-01-30T07:51:53.050Z,99958.41
2019-01-30T07:52:59.567Z,99957.11
2019-01-30T07:54:05.389Z,99953.17
2019-01-30T07:55:16.135Z,99959.71
2019-01-30T07:56:22.920Z,99960.23
2019-01-30T07:57:28.769Z,99961.48
2019-01-30T07:58:34.398Z,99959.34
2019-01-30T07:59:41.570Z,99959.34
2019-01-30T08:00:48.369Z,99967.71
2019-01-30T08:01:53.779Z,99965.59
2019-01-30T08:02:59.096Z,99963.55
2019-01-30T08:04:04.418Z,99967.19
2019-01-30T08:05:10.683Z,99967.67
2019-01-30T08:06:16.060Z,99976.13
2019-01-30T08:07:21.658Z,99972.28
2019-01-30T08:08:26.813Z,99978.50
2019-01-30T08:09:32.182Z,99974.66
2019-01-30T08:10:37.632Z,99982.19
2019-01-30T08:11:43.926Z,99976.27
2019-01-30T08:12:50.166Z,99981.06
2019-01-30T08:13:56.244Z,99976.80
2019-01-30T08:15:02.460Z,99979.86
2019-01-30T08:16:08.270Z,99974.70
2019-01-30T08:17:15.138Z,99976.01
2019-01-30T08:18:20.965Z,99971.27
2019-01-30T08:19:27.414Z,99973.05
2019-01-30T08:20:33.205Z,99971.38
2019-01-30T08:21:39.926Z,99979.63
2019-01-30T08:22:47.507Z,99973.98
2019-01-30T08:23:53.879Z,99980.09
2019-01-30T08:25:08.119Z,99971.02
2019-01-30T08:26:14.162Z,99977.13
2019-01-30T08:27:19.649Z,99980.69
2019-01-30T08:28:26.319Z,99974.73
2019-01-30T08:29:32.478Z,99974.38
2019-01-30T08:30:38.212Z,99979.17
2019-01-30T08:31:44.064Z,99981.84
2019-01-30T08:32:49.600Z,99974.48
2019-01-30T08:33:54.895Z,99974.02
2019-01-30T08:35:00.327Z,99977.98
2019-01-30T08:36:06.085Z,99981.53
2019-01-30T08:37:11.319Z,99982.85
2019-01-30T08:38:16.830Z,99983.78
2019-01-30T08:39:22.178Z,99985.14
2019-01-30T08:40:27.598Z,99984.25
2019-01-30T08:41:32.853Z,99985.58
2019-01-30T08:42:39.113Z,99974.19
2019-01-30T08:43:44.760Z,99984.38
2019-01-30T08:44:51.448Z,99991.83
2019-01-30T08:45:56.917Z,99986.72
2019-01-30T08:47:02.560Z,99989.07
2019-01-30T08:48:08.242Z,99990.49
2019-01-30T08:49:14.868Z,99986.72
2019-01-30T08:50:20.748Z,99990.80
2019-01-30T08:51:26.997Z,99988.75
2019-01-30T08:52:33.061Z,99988.06
2019-01-30T08:53:40.417Z,99982.94
2019-01-30T08:54:46.207Z,99985.60
2019-01-30T08:55:51.878Z,99995.27
2019-01-30T08:56:58.889Z,99981.82
2019-01-30T08:58:05.949Z,99982.72
2019-01-30T08:59:11.648Z,99983.59
2019-01-30T09:00:25.198Z,99989.66
2019-01-30T09:01:31.607Z,99982.23
2019-01-30T09:02:37.395Z,99990.55
2019-01-30T09:03:42.574Z,99985.22
2019-01-30T09:04:47.926Z,99984.30
2019-01-30T09:05:53.373Z,99983.83
2019-01-30T09:06:59.724Z,99981.16
2019-01-30T09:08:04.978Z,99982.80
2019-01-30T09:09:10.789Z,99983.67
2019-01-30T09:10:19.240Z,99981.44
2019-01-30T09:11:24.564Z,99978.67
2019-01-30T09:12:30.248Z,99980.77
2019-01-30T09:13:36.808Z,99982.02
2019-01-30T09:14:42.567Z,99977.58
2019-01-30T09:15:49.055Z,99981.39
2019-01-30T09:16:54.697Z,99986.63
2019-01-30T09:18:00.735Z,99988.77
2019-01-30T09:19:07.475Z,99983.97
2019-01-30T09:20:16.746Z,99983.53
2019-01-30T09:21:22.847Z,99980.92
2019-01-30T09:22:28.997Z,99983.22
2019-01-30T09:23:35.053Z,99985.78
2019-01-30T09:24:42.007Z,99979.30
2019-01-30T09:25:47.857Z,99982.76
2019-01-30T09:26:53.638Z,99975.75
2019-01-30T09:28:02.087Z,99977.44
2019-01-30T09:29:08.946Z,99975.33
2019-01-30T09:30:24.438Z,99976.48
2019-01-30T09:31:30.091Z,99976.90
2019-01-30T09:32:35.618Z,99972.98
2019-01-30T09:33:40.950Z,99974.77
2019-01-30T09:34:46.476Z,99979.10
2019-01-30T09:35:51.809Z,99983.44
2019-01-30T09:36:57.135Z,99982.55
2019-01-30T09:38:02.411Z,99988.66
2019-01-30T09:39:08.985Z,99983.02
2019-01-30T09:40:18.767Z,99979.61
2019-01-30T09:41:24.256Z,99983.55
2019-01-30T09:42:29.560Z,99977.89
2019-01-30T09:43:36.177Z,99984.89
2019-01-30T09:44:42.726Z,99980.92
2019-01-30T09:45:49.075Z,99986.63
2019-01-30T09:46:55.577Z,99987.51
2019-01-30T09:48:01.747Z,99985.36
2019-01-30T09:49:07.663Z,99985.78
2019-01-30T09:50:18.016Z,99981.50
2019-01-30T09:51:23.486Z,99988.44
2019-01-30T09:52:29.190Z,99981.92
2019-01-30T09:53:35.368Z,99981.44
2019-01-30T09:54:40.821Z,99982.76
2019-01-30T09:55:47.121Z,99980.13
2019-01-30T09:56:54.007Z,99981.91
2019-01-30T09:57:59.760Z,99976.23
2019-01-30T09:59:05.875Z,99979.73
2019-01-30T10:00:28.947Z,99979.77
2019-01-30T10:01:34.590Z,99979.73
2019-01-30T10:02:40.021Z,99975.81
2019-01-30T10:03:45.254Z,99977.58
2019-01-30T10:04:50.784Z,99977.16
2019-01-30T10:05:56.164Z,99980.25
2019-01-30T10:07:01.433Z,99978.52
2019-01-30T10:08:06.938Z,99977.64
2019-01-30T10:09:12.338Z,99975.02
2019-01-30T10:10:30.424Z,99980.25
2019-01-30T10:11:35.792Z,99972.92
2019-01-30T10:12:41.488Z,99971.63
2019-01-30T10:13:47.043Z,99975.17
2019-01-30T10:14:53.102Z,99971.71
2019-01-30T10:15:58.510Z,99975.21
2019-01-30T10:17:04.016Z,99967.38
2019-01-30T10:18:09.948Z,99974.42
2019-01-30T10:19:15.813Z,99970.98
2019-01-30T10:20:24.151Z,99971.92
2019-01-30T10:21:30.505Z,99976.72
2019-01-30T10:22:35.830Z,99980.27
2019-01-30T10:23:42.159Z,99967.16
2019-01-30T10:24:50.468Z,99970.25
2019-01-30T10:25:55.736Z,99967.25
2019-01-30T10:27:01.529Z,99962.87
2019-01-30T10:28:16.336Z,99962.03
2019-01-30T10:29:15.981Z,99962.92
2019-01-30T10:30:29.433Z,99960.77
2019-01-30T10:31:35.537Z,99963.81
2019-01-30T10:32:40.997Z,99965.16
2019-01-30T10:33:46.904Z,99963.48
2019-01-30T10:34:52.505Z,99960.50
2019-01-30T10:35:57.876Z,99963.11
2019-01-30T10:37:03.749Z,99965.39
2019-01-30T10:38:09.234Z,99959.33
2019-01-30T10:39:14.671Z,99963.25
2019-01-30T10:40:22.044Z,99958.91
2019-01-30T10:41:27.356Z,99958.48
2019-01-30T10:42:32.791Z,99958.06
2019-01-30T10:43:38.918Z,99957.64
2019-01-30T10:44:44.689Z,99960.22
2019-01-30T10:45:50.439Z,99951.95
2019-01-30T10:46:57.575Z,99957.69
2019-01-30T10:48:03.672Z,99955.53
2019-01-30T10:49:09.685Z,99957.64
2019-01-30T10:50:23.307Z,99949.84
2019-01-30T10:51:29.731Z,99957.73
2019-01-30T10:52:35.728Z,99950.81
2019-01-30T10:53:41.283Z,99951.67
2019-01-30T10:54:47.518Z,99954.37
2019-01-30T10:55:54.729Z,99957.86
2019-01-30T10:57:00.555Z,99951.76
2019-01-30T10:58:17.487Z,99959.22
2019-01-30T10:59:26.650Z,99957.95
2019-01-30T11:00:42.624Z,99949.69
2019-01-30T11:01:49.887Z,99961.46
2019-01-30T11:02:55.185Z,99954.04
2019-01-30T11:04:00.513Z,99956.66
2019-01-30T11:05:09.670Z,99951.84
2019-01-30T11:06:15.156Z,99945.77
2019-01-30T11:07:20.498Z,99941.85
2019-01-30T11:08:25.800Z,99944.50
2019-01-30T11:09:31.242Z,99945.82
2019-01-30T11:10:36.762Z,99943.66
2019-01-30T11:11:42.615Z,99939.78
2019-01-30T11:12:49.275Z,99937.63
2019-01-30T11:13:55.213Z,99942.45
2019-01-30T11:15:02.906Z,99937.64
2019-01-30T11:16:07.830Z,99935.52
2019-01-30T11:17:14.370Z,99930.77
2019-01-30T11:18:21.294Z,99933.50
2019-01-30T11:19:27.074Z,99929.53
2019-01-30T11:20:33.096Z,99927.38
2019-01-30T11:21:38.818Z,99928.27
2019-01-30T11:22:45.279Z,99923.03
2019-01-30T11:23:52.408Z,99923.04
2019-01-30T11:24:57.856Z,99928.27
2019-01-30T11:26:03.685Z,99925.23
2019-01-30T11:27:10.125Z,99917.84
2019-01-30T11:28:15.792Z,99921.81
2019-01-30T11:29:21.929Z,99919.23
2019-01-30T11:30:28.425Z,99917.05
2019-01-30T11:31:34.557Z,99923.63
2019-01-30T11:32:39.835Z,99922.73
2019-01-30T11:33:44.984Z,99918.89
2019-01-30T11:34:50.234Z,99920.16
2019-01-30T11:35:55.462Z,99922.81
2019-01-30T11:37:00.981Z,99917.97
2019-01-30T11:38:08.740Z,99911.93
2019-01-30T11:39:13.285Z,99913.28
2019-01-30T11:40:22.034Z,99914.16
2019-01-30T11:41:28.451Z,99917.70
2019-01-30T11:42:34.208Z,99915.94
2019-01-30T11:43:39.945Z,99912.89
2019-01-30T11:44:45.966Z,99910.31
2019-01-30T11:45:52.848Z,99912.47
2019-01-30T11:46:58.310Z,99907.23
2019-01-30T11:48:04.155Z,99905.05
2019-01-30T11:49:10.427Z,99905.05
2019-01-30T11:50:17.700Z,99904.58
2019-01-30T11:51:23.700Z,99903.31
2019-01-30T11:52:30.205Z,99900.73
2019-01-30T11:53:35.594Z,99905.97
2019-01-30T11:54:41.471Z,99903.31
2019-01-30T11:55:47.367Z,99903.73
2019-01-30T11:56:53.037Z,99903.70
2019-01-30T11:57:59.104Z,99906.77
2019-01-30T11:59:04.991Z,99901.55
2019-01-30T12:00:16.787Z,99909.00
2019-01-30T12:01:22.455Z,99906.39
2019-01-30T12:02:28.609Z,99902.04
2019-01-30T12:03:34.230Z,99905.16
2019-01-30T12:04:39.514Z,99902.58
2019-01-30T12:05:45.448Z,99906.97
2019-01-30T12:06:50.949Z,99902.61
2019-01-30T12:07:56.297Z,99908.27
2019-01-30T12:09:01.610Z,99910.55
2019-01-30T12:10:14.456Z,99909.23
2019-01-30T12:11:19.870Z,99907.50
2019-01-30T12:12:25.403Z,99903.58
2019-01-30T12:13:30.772Z,99903.58
2019-01-30T12:14:37.104Z,99898.80
2019-01-30T12:15:43.813Z,99904.00
2019-01-30T12:16:49.586Z,99903.19
2019-01-30T12:17:55.046Z,99901.42
2019-01-30T12:19:01.143Z,99900.92
2019-01-30T12:20:12.703Z,99899.19
2019-01-30T12:21:18.429Z,99896.95
2019-01-30T12:22:24.447Z,99903.97
2019-01-30T12:23:30.078Z,99904.42
2019-01-30T12:24:36.329Z,99901.77
2019-01-30T12:25:43.255Z,99902.16
2019-01-30T12:26:49.038Z,99900.84
2019-01-30T12:27:55.280Z,99900.38
2019-01-30T12:29:01.025Z,99899.46
2019-01-30T12:30:15.126Z,99897.62
2019-01-30T12:31:22.056Z,99894.00
2019-01-30T12:32:27.760Z,99904.00
2019-01-30T12:33:33.008Z,99894.34
2019-01-30T12:34:38.335Z,99894.27
2019-01-30T12:35:43.706Z,99892.91
2019-01-30T12:36:49.109Z,99895.91
2019-01-30T12:37:54.427Z,99893.67
2019-01-30T12:38:59.959Z,99898.41
2019-01-30T12:40:18.530Z,99887.48
2019-01-30T12:41:23.837Z,99890.98
2019-01-30T12:42:29.174Z,99885.25
2019-01-30T12:43:36.219Z,99877.78
2019-01-30T12:44:41.853Z,99878.25
2019-01-30T12:45:47.672Z,99880.90
2019-01-30T12:46:55.657Z,99874.36
2019-01-30T12:48:02.438Z,99877.91
2019-01-30T12:49:08.832Z,99872.67
2019-01-30T12:50:14.469Z,99870.91
2019-01-30T12:51:20.807Z,99871.37
2019-01-30T12:52:28.217Z,99872.21
2019-01-30T12:53:34.867Z,99872.64
2019-01-30T12:54:41.818Z,99867.83
2019-01-30T12:55:48.098Z,99867.37
2019-01-30T12:56:53.785Z,99862.68
2019-01-30T12:58:01.097Z,99860.48
2019-01-30T12:59:07.453Z,99869.64
2019-01-30T13:00:33.079Z,99859.17
2019-01-30T13:01:39.468Z,99857.88
2019-01-30T13:02:46.231Z,99869.17
2019-01-30T13:03:51.760Z,99863.52
2019-01-30T13:04:57.410Z,99873.14
2019-01-30T13:06:03.624Z,99865.25
2019-01-30T13:07:09.315Z,99865.67